Time;durP1;ratioP1;P1;durP2;ratioP2;P2;SDS_P1;SDS_P2;PMS_P1;PMS_P2;Temp;Humidity;BMP_temperature;BMP_pressure;BME280_temperature;BME280_humidity;BME280_pressure;Samples;Min_cycle;Max_cycle;Signal;HPM_P1;HPM_P2
2022/08/05 00:01:23;;;;;;;6.60;5.80;;;;;;;17.17;67.82;100286.30;129127;1267;1417182;-70
2022/08/05 00:04:29;;;;;;;6.40;5.70;;;;;;;17.12;68.00;100281.31;130329;1267;107660;-70
2022/08/05 00:07:34;;;;;;;6.20;5.60;;;;;;;17.07;68.06;100283.02;130291;1267;109575;-70
2022/08/05 00:10:39;;;;;;;5.30;4.80;;;;;;;17.03;68.24;100278.34;130088;1268;108797;-70
2022/08/05 00:13:45;;;;;;;6.70;5.30;;;;;;;17.02;68.25;100279.56;130210;1267;108556;-70
2022/08/05 00:16:51;;;;;;;6.40;5.50;;;;;;;17.02;68.30;100284.77;130238;1268;109632;-71
2022/08/05 00:19:56;;;;;;;7.30;5.60;;;;;;;17.02;68.30;100281.61;130317;1267;109490;-70
2022/08/05 00:23:01;;;;;;;6.10;5.50;;;;;;;17.02;68.30;100285.30;130292;1267;107655;-70
2022/08/05 00:26:08;;;;;;;6.00;5.40;;;;;;;17.00;68.36;100281.05;130240;1268;108690;-70
2022/08/05 00:29:13;;;;;;;6.20;5.60;;;;;;;16.96;68.38;100278.28;130245;1267;108505;-70
2022/08/05 00:32:18;;;;;;;7.00;5.90;;;;;;;16.94;68.55;100275.20;130307;1267;108725;-70
2022/08/05 00:35:24;;;;;;;6.50;5.90;;;;;;;16.90;68.57;100279.02;130061;1270;108867;-71
2022/08/05 00:38:29;;;;;;;6.40;5.80;;;;;;;16.84;68.68;100281.49;130246;1267;108799;-70
2022/08/05 00:41:35;;;;;;;6.60;5.30;;;;;;;16.80;68.71;100279.77;130241;1267;109612;-69
2022/08/05 00:44:41;;;;;;;5.20;4.70;;;;;;;16.74;68.77;100282.23;130332;1268;108846;-69
2022/08/05 00:47:46;;;;;;;5.80;5.10;;;;;;;16.73;68.85;100283.15;130301;1268;107692;-71
2022/08/05 00:50:52;;;;;;;5.90;5.30;;;;;;;16.74;68.85;100279.96;130301;1267;108812;-71
2022/08/05 00:53:58;;;;;;;6.80;6.10;;;;;;;16.75;68.99;100275.54;130299;1267;109333;-72
2022/08/05 00:57:04;;;;;;;6.50;5.70;;;;;;;16.75;68.99;100278.69;130040;1268;108714;-71
2022/08/05 01:00:12;;;;;;;6.10;5.50;;;;;;;16.73;68.99;100276.33;130205;1268;108861;-69
2022/08/05 01:03:17;;;;;;;6.70;6.00;;;;;;;16.69;69.06;100273.83;130273;1267;108777;-71
2022/08/05 01:06:22;;;;;;;6.40;5.70;;;;;;;16.67;69.18;100273.14;130246;1268;108817;-70
2022/08/05 01:09:28;;;;;;;6.50;5.90;;;;;;;16.63;69.11;100270.20;130213;1268;108436;-71
2022/08/05 01:12:34;;;;;;;5.70;5.20;;;;;;;16.59;69.23;100264.27;130193;1268;109740;-71
2022/08/05 01:15:46;;;;;;;5.80;5.00;;;;;;;16.55;69.28;100264.69;130219;1267;109456;-71
2022/08/05 01:18:58;;;;;;;6.10;5.50;;;;;;;16.53;69.32;100262.39;130213;1267;107495;-69
2022/08/05 01:22:30;;;;;;;5.80;5.20;;;;;;;16.51;69.31;100260.02;130269;1268;107407;-70
2022/08/05 01:25:55;;;;;;;7.40;5.70;;;;;;;16.54;69.46;100258.84;130343;1267;109510;-70
2022/08/05 01:29:04;;;;;;;6.40;5.60;;;;;;;16.54;69.37;100254.62;130294;1268;108960;-71
2022/08/05 01:32:12;;;;;;;7.20;5.90;;;;;;;16.54;69.45;100258.63;130227;1268;108757;-70
2022/08/05 01:35:22;;;;;;;6.70;6.00;;;;;;;16.53;69.51;100259.48;130258;1268;108914;-70
2022/08/05 01:38:30;;;;;;;6.70;6.10;;;;;;;16.48;69.45;100255.00;130201;1268;107714;-70
2022/08/05 01:41:37;;;;;;;8.10;6.00;;;;;;;16.42;69.59;100253.21;130187;1268;108580;-70
2022/08/05 01:44:44;;;;;;;6.40;5.80;;;;;;;16.39;69.65;100251.84;130234;1267;107566;-70
2022/08/05 01:47:52;;;;;;;5.50;4.90;;;;;;;16.35;69.75;100251.55;130215;1267;108753;-70
2022/08/05 01:50:59;;;;;;;5.70;5.10;;;;;;;16.35;69.83;100250.10;130178;1268;108800;-70
2022/08/05 01:54:08;;;;;;;5.80;5.10;;;;;;;16.35;69.97;100242.04;130261;1268;106818;-70
2022/08/05 01:57:18;;;;;;;7.40;5.50;;;;;;;16.35;69.83;100240.70;130238;1268;108594;-70
2022/08/05 02:00:24;;;;;;;6.00;5.40;;;;;;;16.36;70.05;100239.13;130215;1268;109661;-70
2022/08/05 02:03:36;;;;;;;7.10;5.20;;;;;;;16.34;70.04;100237.67;130285;1267;108725;-70
2022/08/05 02:06:41;;;;;;;5.50;4.90;;;;;;;16.32;70.08;100238.93;130261;1267;109487;-70
2022/08/05 02:09:46;;;;;;;5.90;5.40;;;;;;;16.24;69.99;100239.11;130321;1268;109643;-70
2022/08/05 02:12:56;;;;;;;6.60;5.10;;;;;;;16.20;70.21;100240.13;130233;1268;108928;-70
2022/08/05 02:16:07;;;;;;;4.90;4.40;;;;;;;16.16;70.15;100236.98;130224;1268;109458;-70
2022/08/05 02:19:18;;;;;;;5.50;4.70;;;;;;;16.16;70.28;100233.20;130350;1268;108235;-70
2022/08/05 02:22:28;;;;;;;5.30;4.80;;;;;;;16.17;70.34;100220.67;130274;1268;109707;-70
2022/08/05 02:25:36;;;;;;;6.50;5.00;;;;;;;16.18;70.20;100219.04;130229;1268;109569;-71
2022/08/05 02:28:46;;;;;;;6.60;5.90;;;;;;;16.19;70.29;100217.34;130221;1267;108815;-70
2022/08/05 02:31:53;;;;;;;6.80;5.50;;;;;;;16.20;70.33;100215.36;130154;1270;108905;-70
2022/08/05 02:35:02;;;;;;;5.80;5.10;;;;;;;16.17;70.37;100215.21;130243;1268;106972;-71
2022/08/05 02:38:08;;;;;;;5.80;5.20;;;;;;;16.14;70.31;100214.01;130236;1268;108868;-71
2022/08/05 02:41:15;;;;;;;6.90;5.90;;;;;;;16.12;70.47;100211.20;130270;1267;108719;-70
2022/08/05 02:44:23;;;;;;;5.40;4.90;;;;;;;16.05;70.52;100210.61;130175;1268;108731;-70
2022/08/05 02:47:31;;;;;;;5.40;4.80;;;;;;;16.02;70.54;100212.84;130178;1268;107716;-70
2022/08/05 02:50:38;;;;;;;5.60;5.00;;;;;;;16.00;70.69;100206.33;130239;1268;108907;-71
2022/08/05 02:53:44;;;;;;;5.80;5.20;;;;;;;16.02;70.66;100205.98;130249;1267;108703;-70
2022/08/05 02:56:51;;;;;;;5.40;4.90;;;;;;;16.00;70.58;100203.13;130211;1267;109023;-70
2022/08/05 02:59:57;;;;;;;6.00;5.40;;;;;;;15.98;70.78;100206.23;130266;1267;108214;-70
2022/08/05 03:03:03;;;;;;;6.70;5.30;;;;;;;15.96;70.62;100202.92;130092;1270;108836;-70
2022/08/05 03:06:11;;;;;;;5.70;5.10;;;;;;;15.96;70.86;100203.63;130222;1268;108807;-70
2022/08/05 03:09:17;;;;;;;6.40;5.80;;;;;;;15.94;71.01;100199.95;130289;1267;107256;-70
2022/08/05 03:12:33;;;;;;;5.70;5.20;;;;;;;15.90;70.94;100195.20;130124;1268;108751;-70
2022/08/05 03:15:41;;;;;;;7.00;5.40;;;;;;;15.87;71.14;100195.82;130114;1268;109038;-69
2022/08/05 03:18:47;;;;;;;7.00;4.50;;;;;;;15.85;71.17;100199.04;130233;1268;108675;-69
2022/08/05 03:21:52;;;;;;;5.60;5.10;;;;;;;15.86;71.14;100196.69;130253;1267;108714;-71
2022/08/05 03:24:59;;;;;;;9.40;5.40;;;;;;;15.89;71.20;100192.16;130049;1267;108835;-71
2022/08/05 03:28:05;;;;;;;5.60;5.10;;;;;;;15.92;71.17;100186.69;130241;1268;109411;-71
2022/08/05 03:31:12;;;;;;;5.40;4.90;;;;;;;15.96;71.28;100182.98;130254;1267;106891;-71
2022/08/05 03:34:18;;;;;;;5.80;5.20;;;;;;;15.99;71.26;100186.06;130248;1268;108858;-71
2022/08/05 03:37:24;;;;;;;6.40;5.50;;;;;;;16.01;71.35;100189.36;130237;1267;109024;-71
2022/08/05 03:40:30;;;;;;;5.60;5.00;;;;;;;16.04;71.44;100189.02;130299;1267;107023;-71
2022/08/05 03:43:35;;;;;;;5.30;4.80;;;;;;;16.04;71.41;100186.99;130250;1267;108802;-71
2022/08/05 03:46:40;;;;;;;6.10;5.00;;;;;;;16.08;71.60;100183.14;130055;1268;108514;-71
2022/08/05 03:49:46;;;;;;;5.20;4.70;;;;;;;16.10;71.52;100180.42;130274;1268;110107;-71
2022/08/05 03:52:58;;;;;;;5.80;5.10;;;;;;;16.14;71.65;100182.20;130196;1270;108471;-71
2022/08/05 03:56:10;;;;;;;5.00;4.60;;;;;;;16.24;71.89;100180.21;130284;1267;108815;-71
2022/08/05 03:59:21;;;;;;;7.30;5.80;;;;;;;16.44;72.01;100181.50;130331;1267;108715;-71
2022/08/05 04:02:29;;;;;;;6.00;5.40;;;;;;;16.66;71.86;100172.95;130260;1268;108608;-71
2022/08/05 04:05:38;;;;;;;6.00;5.00;;;;;;;16.87;71.91;100171.27;130196;1267;110321;-71
2022/08/05 04:08:44;;;;;;;5.40;4.90;;;;;;;17.04;71.83;100172.02;130206;1268;109548;-70
2022/08/05 04:11:50;;;;;;;5.80;4.80;;;;;;;17.25;71.94;100172.84;130301;1267;109049;-71
2022/08/05 04:14:55;;;;;;;5.70;4.80;;;;;;;17.52;71.82;100168.96;130242;1268;108123;-71
2022/08/05 04:18:04;;;;;;;7.20;5.30;;;;;;;17.81;71.70;100168.84;130250;1268;107191;-70
2022/08/05 04:21:09;;;;;;;7.10;5.30;;;;;;;18.08;71.65;100168.01;130249;1268;107876;-70
2022/08/05 04:24:15;;;;;;;5.50;5.00;;;;;;;18.34;71.55;100174.25;130098;1270;108814;-70
2022/08/05 04:27:20;;;;;;;6.30;5.60;;;;;;;18.58;71.53;100172.85;130225;1268;109064;-71
2022/08/05 04:30:26;;;;;;;7.30;5.80;;;;;;;18.77;71.52;100172.08;130148;1268;109338;-70
2022/08/05 04:33:32;;;;;;;5.30;4.80;;;;;;;18.97;71.46;100171.65;130176;1268;109712;-70
2022/08/05 04:36:38;;;;;;;5.20;4.70;;;;;;;19.17;71.56;100173.48;130205;1268;108753;-70
2022/08/05 04:39:43;;;;;;;5.70;5.00;;;;;;;19.39;71.62;100167.93;130249;1268;108599;-71
2022/08/05 04:42:48;;;;;;;6.50;5.40;;;;;;;19.64;71.62;100171.05;130150;1268;108296;-70
2022/08/05 04:45:54;;;;;;;9.80;5.90;;;;;;;19.92;71.80;100174.61;130088;1271;108711;-71
2022/08/05 04:48:59;;;;;;;6.40;5.80;;;;;;;20.16;71.80;100176.30;130262;1268;111687;-71
2022/08/05 04:52:05;;;;;;;7.70;6.90;;;;;;;20.38;71.71;100171.58;130213;1268;109450;-70
2022/08/05 04:55:11;;;;;;;7.20;6.40;;;;;;;20.58;71.68;100168.84;130292;1268;108632;-70
2022/08/05 04:58:18;;;;;;;6.90;5.90;;;;;;;20.77;71.71;100167.36;130172;1268;109534;-70
2022/08/05 05:01:23;;;;;;;6.60;5.10;;;;;;;20.97;71.68;100166.64;130227;1268;107691;-71
2022/08/05 05:04:29;;;;;;;5.30;4.80;;;;;;;21.17;71.61;100168.30;130200;1268;108936;-71
2022/08/05 05:07:34;;;;;;;7.90;5.20;;;;;;;21.37;71.50;100173.20;130278;1268;108853;-71
2022/08/05 05:10:45;;;;;;;7.90;5.40;;;;;;;21.59;71.40;100172.88;130232;1268;108740;-71
2022/08/05 05:13:51;;;;;;;7.40;5.60;;;;;;;21.78;71.21;100169.13;130339;1268;109753;-71
2022/08/05 05:16:56;;;;;;;6.00;5.00;;;;;;;21.96;71.17;100170.94;130318;1267;109726;-71
2022/08/05 05:20:01;;;;;;;6.80;5.20;;;;;;;22.11;71.07;100170.04;130296;1268;108896;-71
2022/08/05 05:23:07;;;;;;;6.50;5.90;;;;;;;22.23;70.87;100173.73;130185;1268;108722;-71
2022/08/05 05:26:12;;;;;;;6.10;5.40;;;;;;;22.35;70.96;100177.38;130336;1268;108661;-71
2022/08/05 05:29:17;;;;;;;6.10;5.20;;;;;;;22.44;70.82;100179.21;130208;1268;108861;-71
2022/08/05 05:32:23;;;;;;;8.00;4.90;;;;;;;22.51;70.71;100177.23;130215;1268;108641;-71
2022/08/05 05:35:28;;;;;;;6.50;5.00;;;;;;;22.62;70.57;100178.25;130301;1268;108877;-71
2022/08/05 05:38:33;;;;;;;6.60;5.30;;;;;;;22.71;70.40;100179.86;130209;1268;109286;-71
2022/08/05 05:41:39;;;;;;;6.20;5.10;;;;;;;22.82;69.97;100173.61;130324;1268;108824;-71
2022/08/05 05:44:44;;;;;;;5.90;5.30;;;;;;;22.90;69.95;100178.77;130239;1268;108674;-71
2022/08/05 05:47:50;;;;;;;7.20;5.10;;;;;;;22.96;69.88;100184.84;130320;1268;108612;-71
2022/08/05 05:50:55;;;;;;;5.80;4.80;;;;;;;23.00;70.13;100182.92;130213;1268;107776;-70
2022/08/05 05:54:00;;;;;;;7.40;5.20;;;;;;;23.06;69.71;100186.60;130205;1268;109712;-71
2022/08/05 05:57:06;;;;;;;8.90;5.20;;;;;;;23.07;69.62;100190.56;129943;1269;108731;-71
2022/08/05 06:00:15;;;;;;;6.10;5.10;;;;;;;23.10;69.61;100190.47;130162;1268;109712;-70
2022/08/05 06:03:20;;;;;;;5.50;4.90;;;;;;;23.11;69.21;100190.29;130217;1268;108786;-70
2022/08/05 06:06:25;;;;;;;4.90;4.40;;;;;;;23.15;69.57;100186.53;130196;1268;108552;-70
2022/08/05 06:09:31;;;;;;;9.00;4.70;;;;;;;23.21;69.31;100183.02;130224;1268;108736;-71
2022/08/05 06:12:37;;;;;;;6.40;5.10;;;;;;;23.26;69.08;100174.05;130206;1268;109563;-70
2022/08/05 06:15:43;;;;;;;5.70;5.10;;;;;;;23.31;69.02;100180.48;129955;1268;107239;-70
2022/08/05 06:18:48;;;;;;;5.50;5.00;;;;;;;23.32;68.79;100181.42;130214;1268;109044;-70
2022/08/05 06:21:54;;;;;;;6.30;5.00;;;;;;;23.34;68.74;100180.92;130217;1268;108679;-70
2022/08/05 06:24:59;;;;;;;5.30;4.80;;;;;;;23.37;68.62;100183.61;130188;1267;110304;-70
2022/08/05 06:28:05;;;;;;;5.40;4.90;;;;;;;23.39;68.53;100186.09;130177;1268;108800;-70
2022/08/05 06:31:11;;;;;;;6.10;4.80;;;;;;;23.39;68.26;100182.29;130210;1268;108859;-71
2022/08/05 06:34:16;;;;;;;5.20;4.70;;;;;;;23.41;68.21;100174.70;130218;1268;109647;-71
2022/08/05 06:37:26;;;;;;;5.10;4.50;;;;;;;23.43;68.31;100172.74;130178;1268;108816;-71
2022/08/05 06:40:31;;;;;;;5.30;4.30;;;;;;;23.46;68.18;100173.23;130200;1268;108650;-70
2022/08/05 06:43:37;;;;;;;5.00;4.50;;;;;;;23.49;68.02;100172.80;130179;1268;108859;-71
2022/08/05 06:46:43;;;;;;;6.60;4.70;;;;;;;23.52;67.70;100169.23;130212;1268;108545;-71
2022/08/05 06:49:48;;;;;;;6.90;4.60;;;;;;;23.56;67.63;100169.23;130136;1268;109500;-70
2022/08/05 06:52:54;;;;;;;5.30;4.80;;;;;;;23.61;67.74;100165.47;130114;1268;108727;-70
2022/08/05 06:56:02;;;;;;;4.90;4.40;;;;;;;23.66;67.72;100167.97;130052;1268;108749;-70
2022/08/05 06:59:08;;;;;;;5.60;4.20;;;;;;;23.73;67.31;100161.41;130116;1268;108755;-71
2022/08/05 07:02:13;;;;;;;5.00;4.50;;;;;;;23.83;67.28;100158.47;130110;1268;109053;-71
2022/08/05 07:05:19;;;;;;;7.40;4.50;;;;;;;23.95;67.30;100154.16;130067;1271;108665;-70
2022/08/05 07:08:24;;;;;;;5.00;4.50;;;;;;;24.06;67.11;100153.55;130144;1268;108652;-70
2022/08/05 07:11:30;;;;;;;7.20;4.80;;;;;;;24.14;67.09;100154.90;130261;1268;108737;-70
2022/08/05 07:17:58;;;;;;;5.70;4.70;;;;;;;24.30;66.84;100150.16;130172;1268;107247;-71
2022/08/05 07:21:05;;;;;;;5.30;4.80;;;;;;;24.37;66.67;100148.58;130099;1268;106988;-70
2022/08/05 07:24:11;;;;;;;6.70;4.80;;;;;;;24.45;66.55;100148.23;130089;1268;108927;-71
2022/08/05 07:27:17;;;;;;;5.60;5.00;;;;;;;24.52;66.23;100148.41;130118;1269;108702;-71
2022/08/05 07:30:23;;;;;;;5.10;4.60;;;;;;;24.59;66.41;100146.03;130077;1268;108651;-71
2022/08/05 07:33:28;;;;;;;5.00;4.60;;;;;;;24.67;65.82;100143.38;130058;1268;107665;-71
2022/08/05 07:36:34;;;;;;;4.90;4.20;;;;;;;24.75;65.88;100145.02;130103;1268;108681;-70
2022/08/05 07:39:39;;;;;;;5.00;4.50;;;;;;;24.85;65.91;100149.59;130184;1268;107031;-71
2022/08/05 07:42:44;;;;;;;5.40;4.40;;;;;;;24.93;65.67;100154.19;130066;1268;108955;-71
2022/08/05 07:45:50;;;;;;;4.70;4.10;;;;;;;25.00;65.53;100153.90;130087;1268;108773;-71
2022/08/05 07:48:57;;;;;;;4.50;4.10;;;;;;;25.07;65.35;100149.15;130191;1268;108545;-71
2022/08/05 07:52:03;;;;;;;4.20;3.80;;;;;;;25.19;65.13;100152.30;130266;1268;108937;-71
2022/08/05 07:55:10;;;;;;;4.60;4.10;;;;;;;25.26;64.64;100152.28;130203;1268;108909;-71
2022/08/05 07:58:15;;;;;;;5.00;3.80;;;;;;;25.34;64.47;100148.00;130227;1268;108671;-71
2022/08/05 08:01:23;;;;;;;5.60;4.30;;;;;;;25.40;64.45;100143.16;130083;1268;108778;-71
2022/08/05 08:04:29;;;;;;;4.90;4.50;;;;;;;25.49;64.33;100148.67;130228;1268;108280;-71
2022/08/05 08:07:35;;;;;;;4.70;4.30;;;;;;;25.56;63.87;100150.02;130149;1268;108694;-71
2022/08/05 08:10:40;;;;;;;7.60;5.80;;;;;;;25.62;63.38;100147.58;130171;1268;108761;-71
2022/08/05 08:13:45;;;;;;;5.10;4.20;;;;;;;25.67;63.30;100142.93;130184;1268;109556;-71
2022/08/05 08:16:51;;;;;;;5.50;4.10;;;;;;;25.72;63.13;100144.73;130177;1268;109702;-71
2022/08/05 08:19:56;;;;;;;4.30;3.70;;;;;;;25.81;63.27;100138.55;130155;1268;109305;-71
2022/08/05 08:23:02;;;;;;;4.10;3.70;;;;;;;25.89;62.62;100138.30;130212;1268;108676;-71
2022/08/05 08:26:08;;;;;;;4.00;3.60;;;;;;;25.95;62.45;100140.04;130199;1268;108858;-71
2022/08/05 08:29:13;;;;;;;4.30;3.90;;;;;;;26.04;62.39;100139.75;130185;1268;108566;-71
2022/08/05 08:32:18;;;;;;;4.70;3.70;;;;;;;26.12;62.34;100136.81;130230;1268;108908;-71
2022/08/05 08:35:24;;;;;;;4.80;3.90;;;;;;;26.20;62.08;100138.59;130319;1268;107678;-71
2022/08/05 08:38:29;;;;;;;4.30;3.30;;;;;;;26.26;61.95;100132.46;130175;1267;107641;-71
2022/08/05 08:41:37;;;;;;;4.30;3.90;;;;;;;26.31;61.32;100127.96;130188;1268;109704;-71
2022/08/05 08:44:44;;;;;;;4.30;3.80;;;;;;;26.37;61.24;100131.02;130172;1268;109025;-71
2022/08/05 08:47:52;;;;;;;5.80;4.10;;;;;;;26.43;61.24;100127.85;130138;1268;108609;-71
2022/08/05 08:50:57;;;;;;;4.40;3.70;;;;;;;26.50;60.34;100134.41;130334;1268;108796;-71
2022/08/05 08:54:04;;;;;;;4.70;3.80;;;;;;;26.55;60.11;100133.90;130254;1268;108822;-71
2022/08/05 08:57:10;;;;;;;7.40;3.50;;;;;;;26.59;59.90;100131.53;130271;1268;108280;-71
2022/08/05 09:00:16;;;;;;;5.30;3.50;;;;;;;26.63;59.68;100126.48;130014;1268;108658;-72
2022/08/05 09:03:22;;;;;;;3.30;3.00;;;;;;;26.69;59.52;100127.19;130127;1268;108655;-70
2022/08/05 09:06:29;;;;;;;3.50;3.20;;;;;;;26.73;58.58;100121.90;130242;1268;107620;-70
2022/08/05 09:09:36;;;;;;;3.50;3.00;;;;;;;26.78;59.03;100119.91;130287;1268;108579;-72
2022/08/05 09:12:41;;;;;;;4.00;3.30;;;;;;;26.84;58.81;100114.52;130200;1268;108866;-70
2022/08/05 09:15:46;;;;;;;3.30;3.00;;;;;;;26.90;58.73;100115.60;130260;1268;108723;-70
2022/08/05 09:18:52;;;;;;;4.60;3.30;;;;;;;26.94;58.56;100112.01;130210;1268;108952;-70
2022/08/05 09:21:58;;;;;;;4.40;3.60;;;;;;;26.97;58.40;100105.78;130257;1268;108595;-72
2022/08/05 09:25:04;;;;;;;5.00;3.40;;;;;;;27.03;58.41;100094.30;130248;1268;108811;-70
2022/08/05 09:28:16;;;;;;;3.40;3.10;;;;;;;27.09;57.68;100103.21;130240;1268;108872;-72
2022/08/05 09:31:22;;;;;;;4.20;3.10;;;;;;;27.13;57.32;100104.48;130123;1268;108763;-71
2022/08/05 09:34:45;;;;;;;3.50;3.20;;;;;;;27.15;56.79;100102.58;130221;1268;108356;-70
2022/08/05 09:37:57;;;;;;;3.60;3.20;;;;;;;27.18;56.98;100103.52;130215;1268;108787;-72
2022/08/05 09:41:08;;;;;;;3.70;3.30;;;;;;;27.23;56.65;100102.40;130220;1268;108985;-70
2022/08/05 09:44:35;;;;;;;3.90;3.30;;;;;;;27.29;56.88;100099.98;130209;1268;107022;-70
2022/08/05 09:47:42;;;;;;;3.70;3.40;;;;;;;27.36;56.58;100098.16;130241;1267;108589;-70
2022/08/05 09:50:51;;;;;;;5.00;3.60;;;;;;;27.39;55.92;100097.61;130252;1268;109002;-70
2022/08/05 09:53:56;;;;;;;3.60;3.30;;;;;;;27.42;56.52;100097.13;130210;1268;108637;-70
2022/08/05 09:57:02;;;;;;;4.80;3.30;;;;;;;27.49;56.49;100098.30;130193;1267;108688;-70
2022/08/05 10:00:11;;;;;;;6.50;3.60;;;;;;;27.53;55.99;100097.82;130239;1268;108722;-71
2022/08/05 10:03:16;;;;;;;3.50;3.20;;;;;;;27.59;55.58;100101.73;130233;1268;108842;-71
2022/08/05 10:06:22;;;;;;;3.70;3.30;;;;;;;27.61;55.50;100092.14;130221;1268;108509;-70
2022/08/05 10:09:28;;;;;;;3.90;3.50;;;;;;;27.66;55.72;100090.34;130110;1268;109558;-71
2022/08/05 10:12:41;;;;;;;4.10;3.60;;;;;;;27.73;55.75;100090.19;130213;1268;108882;-70
2022/08/05 10:15:46;;;;;;;7.50;3.70;;;;;;;27.76;55.63;100086.86;130236;1267;108789;-70
2022/08/05 10:18:52;;;;;;;4.60;3.50;;;;;;;27.79;55.09;100082.42;130263;1268;107409;-70
2022/08/05 10:21:57;;;;;;;6.50;3.50;;;;;;;27.82;55.16;100074.91;130172;1268;109237;-71
2022/08/05 10:25:03;;;;;;;4.20;3.40;;;;;;;27.83;55.15;100069.54;130227;1267;107153;-71
2022/08/05 10:28:09;;;;;;;4.60;3.40;;;;;;;27.88;55.15;100066.55;130164;1268;108667;-71
2022/08/05 10:31:16;;;;;;;3.80;3.40;;;;;;;27.93;54.95;100069.70;130225;1267;108715;-70
2022/08/05 10:34:22;;;;;;;4.60;3.50;;;;;;;27.98;54.44;100062.29;130225;1267;108939;-71
2022/08/05 10:37:29;;;;;;;5.10;3.20;;;;;;;28.00;54.54;100057.20;130231;1268;108876;-71
2022/08/05 10:40:38;;;;;;;4.40;3.10;;;;;;;28.04;54.29;100054.99;130130;1268;108838;-71
2022/08/05 10:43:51;;;;;;;3.50;3.10;;;;;;;28.07;54.06;100050.55;130249;1268;109026;-71
2022/08/05 10:46:57;;;;;;;4.00;3.40;;;;;;;28.11;53.91;100051.27;130210;1267;108706;-70
2022/08/05 10:50:10;;;;;;;4.90;3.10;;;;;;;28.16;54.41;100050.44;130178;1267;109580;-71
2022/08/05 10:53:35;;;;;;;3.80;3.40;;;;;;;28.24;53.85;100049.45;130207;1267;110372;-71
2022/08/05 10:56:48;;;;;;;4.30;3.60;;;;;;;28.28;53.73;100048.56;130207;1267;107643;-71
2022/08/05 11:00:09;;;;;;;4.10;3.50;;;;;;;28.29;53.57;100045.16;130197;1267;109455;-70
2022/08/05 11:03:14;;;;;;;6.70;3.60;;;;;;;28.32;53.05;100042.79;130262;1267;108900;-71
2022/08/05 11:06:20;;;;;;;4.00;3.60;;;;;;;28.34;52.81;100041.36;130197;1267;107430;-71
2022/08/05 11:09:26;;;;;;;4.00;3.70;;;;;;;28.37;52.72;100032.86;130191;1267;108741;-71
2022/08/05 11:12:45;;;;;;;4.40;3.50;;;;;;;28.43;52.51;100035.31;130186;1267;109069;-71
2022/08/05 11:16:11;;;;;;;3.70;3.40;;;;;;;28.48;52.40;100027.95;130142;1268;108817;-70
2022/08/05 11:19:30;;;;;;;5.10;4.00;;;;;;;28.50;51.98;100026.40;130175;1268;108823;-71
2022/08/05 11:22:46;;;;;;;6.90;4.30;;;;;;;28.49;51.54;100022.73;130192;1268;108898;-71
2022/08/05 11:26:08;;;;;;;4.60;4.20;;;;;;;28.50;51.88;100021.96;130197;1268;108648;-71
2022/08/05 11:29:39;;;;;;;5.20;3.90;;;;;;;28.54;51.48;100031.16;130283;1268;108660;-71
2022/08/05 11:32:44;;;;;;;4.40;4.00;;;;;;;28.55;51.21;100028.02;130155;1268;109637;-70
2022/08/05 11:35:57;;;;;;;4.20;3.80;;;;;;;28.56;51.44;100028.77;130177;1268;108769;-70
2022/08/05 11:39:03;;;;;;;3.90;3.60;;;;;;;28.62;51.55;100027.90;130167;1268;108926;-71
2022/08/05 11:42:09;;;;;;;4.00;3.60;;;;;;;28.69;51.21;100028.21;130137;1268;108207;-72
2022/08/05 11:45:15;;;;;;;3.90;3.50;;;;;;;28.70;50.83;100023.41;130208;1268;108668;-72
2022/08/05 11:48:20;;;;;;;3.90;3.60;;;;;;;28.71;50.62;100016.88;130267;1268;108756;-72
2022/08/05 11:51:27;;;;;;;4.70;3.70;;;;;;;28.71;50.55;100015.84;130259;1267;109053;-70
2022/08/05 11:54:36;;;;;;;4.60;3.70;;;;;;;28.76;50.63;100015.66;130212;1268;108923;-71
2022/08/05 11:57:46;;;;;;;4.60;3.50;;;;;;;28.81;50.26;100020.30;130178;1268;108766;-70
2022/08/05 12:01:03;;;;;;;4.30;3.80;;;;;;;28.82;50.54;100016.30;129193;1268;1327719;-70
2022/08/05 12:04:08;;;;;;;4.00;3.60;;;;;;;28.87;50.77;100018.25;130181;1268;106545;-73
2022/08/05 12:07:16;;;;;;;6.00;3.40;;;;;;;28.92;50.45;100013.52;130146;1268;109583;-71
2022/08/05 12:10:25;;;;;;;7.10;3.00;;;;;;;28.97;50.49;100009.59;130169;1268;108538;-71
2022/08/05 12:13:30;;;;;;;3.40;2.90;;;;;;;29.02;49.86;100011.27;130243;1268;108305;-71
2022/08/05 12:16:37;;;;;;;3.40;3.10;;;;;;;29.04;49.54;100002.80;130191;1268;109590;-71
2022/08/05 12:19:48;;;;;;;3.00;2.80;;;;;;;29.05;49.34;99995.77;130208;1268;107744;-71
2022/08/05 12:23:07;;;;;;;3.40;3.00;;;;;;;29.09;49.19;99999.20;130247;1268;108939;-71
2022/08/05 12:26:12;;;;;;;3.10;2.80;;;;;;;29.12;48.19;99996.08;130179;1268;108117;-71
2022/08/05 12:29:19;;;;;;;3.50;3.00;;;;;;;29.12;47.73;99992.89;130185;1267;107398;-71
2022/08/05 12:32:25;;;;;;;3.20;2.90;;;;;;;29.14;48.27;99990.20;130170;1268;109376;-71
2022/08/05 12:35:31;;;;;;;3.00;2.80;;;;;;;29.15;47.96;99986.28;130136;1267;108966;-71
2022/08/05 12:38:38;;;;;;;3.20;2.80;;;;;;;29.17;47.76;99984.24;129963;1268;109722;-71
2022/08/05 12:41:44;;;;;;;4.00;3.00;;;;;;;29.16;47.43;99984.52;130087;1267;109241;-71
2022/08/05 12:44:50;;;;;;;6.30;3.50;;;;;;;29.19;47.81;99984.17;130180;1268;109489;-70
2022/08/05 12:47:55;;;;;;;3.10;2.80;;;;;;;29.22;47.45;99983.77;130156;1267;109617;-70
2022/08/05 12:51:16;;;;;;;3.30;3.00;;;;;;;29.24;47.57;99981.17;130239;1268;107400;-70
2022/08/05 12:54:24;;;;;;;3.50;2.80;;;;;;;29.30;47.04;99982.95;130234;1268;108844;-70
2022/08/05 12:57:37;;;;;;;3.50;2.70;;;;;;;29.29;46.92;99981.64;130241;1268;107121;-70
2022/08/05 13:00:46;;;;;;;3.80;2.70;;;;;;;29.25;46.69;99976.27;130240;1268;107594;-71
2022/08/05 13:03:51;;;;;;;4.40;3.70;;;;;;;29.25;46.80;99971.27;130229;1268;109808;-71
2022/08/05 13:06:58;;;;;;;3.80;2.90;;;;;;;29.29;46.82;99972.19;130087;1268;108991;-71
2022/08/05 13:10:09;;;;;;;3.90;3.20;;;;;;;29.34;46.63;99968.58;130145;1268;110433;-71
2022/08/05 13:13:20;;;;;;;3.30;3.00;;;;;;;29.40;46.76;99966.73;130213;1267;109351;-71
2022/08/05 13:16:24;;;;;;;;;;;;;;;29.45;46.62;99963.67;130301;1268;108750;-71
2022/08/05 13:19:30;;;;;;;3.30;3.00;;;;;;;29.49;47.20;99961.88;130337;1267;108761;-71
2022/08/05 13:22:38;;;;;;;2.90;2.60;;;;;;;29.50;46.38;99955.06;130369;1268;108681;-71
2022/08/05 13:25:43;;;;;;;2.90;2.50;;;;;;;29.50;46.11;99949.79;130290;1267;109006;-71
2022/08/05 13:28:49;;;;;;;3.20;2.90;;;;;;;29.51;46.00;99949.11;130255;1267;108972;-72
2022/08/05 13:31:57;;;;;;;3.50;2.80;;;;;;;29.50;46.04;99945.42;130321;1267;108856;-71
2022/08/05 13:35:02;;;;;;;3.30;3.00;;;;;;;29.52;45.55;99945.52;130298;1267;107547;-71
2022/08/05 13:38:08;;;;;;;3.60;3.10;;;;;;;29.53;45.60;99941.17;130339;1268;107507;-71
2022/08/05 13:41:14;;;;;;;3.10;2.80;;;;;;;29.55;45.82;99936.41;130336;1268;108966;-71
2022/08/05 13:44:20;;;;;;;3.30;3.00;;;;;;;29.54;45.76;99934.35;130364;1268;107192;-71
2022/08/05 13:47:26;;;;;;;3.90;3.40;;;;;;;29.55;45.54;99931.33;130297;1268;107470;-72
2022/08/05 13:50:31;;;;;;;3.60;2.90;;;;;;;29.58;45.70;99929.87;130266;1268;108866;-71
2022/08/05 13:53:37;;;;;;;12.40;2.90;;;;;;;29.58;45.27;99930.86;130323;1268;109119;-71
2022/08/05 13:56:43;;;;;;;3.40;3.10;;;;;;;29.58;44.99;99926.67;130322;1267;108697;-71
2022/08/05 13:59:48;;;;;;;3.10;2.80;;;;;;;29.60;45.33;99924.14;130280;1267;108762;-71
2022/08/05 14:02:54;;;;;;;3.10;2.90;;;;;;;29.62;45.57;99927.42;130303;1267;108813;-71
2022/08/05 14:05:59;;;;;;;3.40;3.10;;;;;;;29.65;45.26;99927.83;130295;1267;108826;-71
2022/08/05 14:09:05;;;;;;;3.30;2.90;;;;;;;29.68;45.38;99920.88;130290;1267;108903;-71
2022/08/05 14:12:11;;;;;;;3.00;2.70;;;;;;;29.70;45.24;99919.59;130237;1268;108661;-71
2022/08/05 14:15:17;;;;;;;7.10;3.30;;;;;;;29.71;45.02;99917.44;130304;1265;109762;-71